Accueil
METAR-TAF:

METAR-TAF

Aéroports :

Georgetown, Île de l'Ascension

latitude: 07-58S, longitude: 014-24W, altitude: 86 m

Observation

Le bulletin a été fait il y a 7 heures et 12 minutes, à 20:50 UTC
Vent 16 kt de est/sud-est
Température 23°C
Humidité 83%
Pression 1014 hPa
Visibilité 10 km ou plus
Quelques nuages à une hauteur de 1700 ft
Nuages fragmentés à une hauteur de 3300 ft

METAR: FHAW 232050Z 12016KT 9999 FEW017 BKN033 23/20 Q1014 BLU

Heure: 04:02 (04:02 UTC)


TAF: absent

Observations et prévisions météorologiques de plus de 4000 aéroports (messages METAR et TAF).

Les stations disponibles sont représentées par des disques jaunes et rouges sur la carte.

Passer la souris dessus pour voir le nom de la station.

Cliquer dessus pour voir les observations et prévisions météorologiques.

Pour changer de carte: cliquez sur les boutons verts avec une croix noire pour zoomer, sur le bouton vert avec un tiret pour effectuer un zoom arrière, ou sur les flèches vertes pour les cartes adjacentes.


METAR-TAF: